Terminal Aerodrome Forecast
Issued by NWS

Home | Current Version | Previous Version | Text Only | Print | Product List | Glossary On
Versions: 1 2 3 4 5 6 7 8 9 10 11 12
225
FTUS43 KOAX 042349 RRA
TAFSNY
TAF
KSNY 042349Z 0500/0524 22009KT P6SM SKC
     FM050900 27008KT P6SM SCT250
     FM051800 34017G26KT P6SM SCT100=

USA.gov is the U.S. government's official web portal to all federal, state and local government web resources and services.